createdAt,value
2018-09-20T00:02:03.430Z,23.68
2018-09-20T00:04:31.478Z,23.68
2018-09-20T00:06:59.553Z,23.68
2018-09-20T00:09:27.608Z,23.69
2018-09-20T00:11:55.700Z,23.69
2018-09-20T00:14:23.812Z,23.67
2018-09-20T00:16:51.869Z,23.65
2018-09-20T00:19:20.004Z,23.64
2018-09-20T00:21:48.116Z,23.63
2018-09-20T00:24:16.197Z,23.55
2018-09-20T00:26:44.300Z,23.50
2018-09-20T00:29:12.372Z,23.42
2018-09-20T00:31:40.459Z,23.37
2018-09-20T00:34:08.522Z,23.37
2018-09-20T00:36:36.592Z,23.37
2018-09-20T00:39:08.995Z,23.37
2018-09-20T00:41:37.056Z,23.38
2018-09-20T00:44:05.104Z,23.39
2018-09-20T00:46:33.192Z,23.42
2018-09-20T00:49:01.252Z,23.41
2018-09-20T00:51:29.317Z,23.46
2018-09-20T00:53:57.394Z,23.43
2018-09-20T00:56:25.441Z,23.47
2018-09-20T00:58:53.625Z,23.49
2018-09-20T01:01:21.695Z,23.55
2018-09-20T01:03:49.760Z,23.62
2018-09-20T01:06:17.803Z,23.65
2018-09-20T01:08:45.916Z,23.64
2018-09-20T01:11:13.976Z,23.64
2018-09-20T01:13:42.064Z,23.62
2018-09-20T01:16:10.138Z,23.60
2018-09-20T01:18:38.186Z,23.57
2018-09-20T01:21:06.418Z,23.54
2018-09-20T01:23:34.475Z,23.51
2018-09-20T01:26:02.536Z,23.48
2018-09-20T01:28:30.599Z,23.44
2018-09-20T01:30:58.740Z,23.37
2018-09-20T01:33:26.796Z,23.33
2018-09-20T01:35:54.889Z,23.33
2018-09-20T01:38:22.937Z,23.33
2018-09-20T01:40:51.021Z,23.33
2018-09-20T01:43:19.095Z,23.23
2018-09-20T01:45:47.157Z,23.16
2018-09-20T01:48:15.220Z,23.14
2018-09-20T01:50:43.271Z,23.14
2018-09-20T01:53:11.379Z,23.11
2018-09-20T01:55:39.439Z,23.12
2018-09-20T01:58:07.520Z,23.08
2018-09-20T02:00:35.578Z,23.07
2018-09-20T02:03:03.687Z,23.05
2018-09-20T02:05:31.732Z,23.05
2018-09-20T02:07:59.792Z,23.08
2018-09-20T02:10:27.847Z,23.03
2018-09-20T02:12:55.939Z,23.07
2018-09-20T02:15:23.997Z,23.09
2018-09-20T02:17:52.076Z,23.11
2018-09-20T02:20:20.163Z,23.17
2018-09-20T02:22:48.220Z,23.15
2018-09-20T02:25:16.281Z,23.08
2018-09-20T02:27:44.448Z,23.02
2018-09-20T02:30:12.512Z,23.02
2018-09-20T02:32:40.576Z,23.01
2018-09-20T02:35:08.635Z,23.00
2018-09-20T02:37:36.697Z,23.02
2018-09-20T02:40:04.766Z,22.97
2018-09-20T02:42:32.874Z,22.95
2018-09-20T02:45:00.927Z,22.95
2018-09-20T02:47:29.009Z,22.93
2018-09-20T02:49:57.072Z,22.97
2018-09-20T02:52:25.156Z,22.96
2018-09-20T02:54:53.237Z,22.90
2018-09-20T02:57:21.293Z,22.81
2018-09-20T02:59:49.353Z,22.77
2018-09-20T03:02:17.437Z,22.72
2018-09-20T03:04:45.516Z,22.71
2018-09-20T03:07:13.575Z,22.72
2018-09-20T03:09:41.620Z,22.70
2018-09-20T03:12:09.663Z,22.65
2018-09-20T03:14:37.797Z,22.64
2018-09-20T03:17:05.838Z,22.69
2018-09-20T03:19:33.896Z,22.68
2018-09-20T03:22:02.185Z,22.68
2018-09-20T03:24:30.268Z,22.66
2018-09-20T03:26:58.532Z,22.66
2018-09-20T03:29:26.643Z,22.69
2018-09-20T03:31:54.797Z,22.66
2018-09-20T03:34:22.867Z,22.65
2018-09-20T03:36:50.924Z,22.58
2018-09-20T03:39:19.016Z,22.58
2018-09-20T03:41:47.077Z,22.61
2018-09-20T03:44:15.152Z,22.68
2018-09-20T03:46:43.200Z,22.66
2018-09-20T03:49:11.289Z,22.69
2018-09-20T03:51:39.347Z,22.69
2018-09-20T03:54:07.404Z,22.72
2018-09-20T03:56:35.452Z,22.71
2018-09-20T03:59:03.563Z,22.69
2018-09-20T04:01:31.640Z,22.68
2018-09-20T04:03:59.815Z,22.69
2018-09-20T04:06:27.835Z,22.68
2018-09-20T04:08:55.908Z,22.68
2018-09-20T04:11:23.972Z,22.66
2018-09-20T04:13:52.090Z,22.63
2018-09-20T04:16:20.133Z,22.57
2018-09-20T04:18:48.196Z,22.53
2018-09-20T04:21:23.456Z,22.55
2018-09-20T04:23:51.536Z,22.51
2018-09-20T04:26:19.600Z,22.48
2018-09-20T04:28:47.676Z,22.44
2018-09-20T04:31:15.745Z,22.43
2018-09-20T04:33:43.798Z,22.44
2018-09-20T04:36:11.871Z,22.40
2018-09-20T04:38:39.948Z,22.41
2018-09-20T04:41:08.003Z,22.41
2018-09-20T04:43:36.096Z,22.40
2018-09-20T04:46:04.168Z,22.33
2018-09-20T04:48:32.219Z,22.36
2018-09-20T04:51:00.280Z,22.44
2018-09-20T04:53:28.409Z,22.53
2018-09-20T04:55:56.448Z,22.61
2018-09-20T04:58:24.516Z,22.66
2018-09-20T05:00:52.593Z,22.71
2018-09-20T05:03:20.657Z,22.69
2018-09-20T05:05:48.829Z,22.70
2018-09-20T05:08:16.887Z,22.76
2018-09-20T05:10:45.092Z,22.78
2018-09-20T05:13:13.305Z,22.84
2018-09-20T05:15:41.376Z,22.78
2018-09-20T05:18:09.449Z,22.77
2018-09-20T05:20:37.554Z,22.77
2018-09-20T05:23:05.615Z,22.75
2018-09-20T05:25:33.684Z,22.76
2018-09-20T05:28:01.760Z,22.74
2018-09-20T05:30:30.131Z,22.66
2018-09-20T05:32:58.396Z,22.54
2018-09-20T05:35:26.838Z,22.51
2018-09-20T05:37:54.851Z,22.52
2018-09-20T05:40:22.973Z,22.56
2018-09-20T05:42:51.492Z,22.46
2018-09-20T05:45:19.607Z,22.11
2018-09-20T05:47:47.744Z,21.71
2018-09-20T05:50:15.804Z,21.42
2018-09-20T05:52:43.864Z,21.15
2018-09-20T05:55:12.075Z,20.93
2018-09-20T05:57:40.252Z,20.75
2018-09-20T06:00:08.613Z,20.64
2018-09-20T06:02:36.867Z,20.54
2018-09-20T06:05:05.249Z,20.46
2018-09-20T06:07:33.365Z,20.43
2018-09-20T06:10:01.430Z,20.39
2018-09-20T06:12:29.484Z,20.41
2018-09-20T06:14:57.562Z,20.46
2018-09-20T06:17:26.044Z,20.49
2018-09-20T06:19:54.296Z,20.59
2018-09-20T06:22:22.376Z,20.69
2018-09-20T06:24:50.424Z,20.77
2018-09-20T06:27:18.480Z,20.87
2018-09-20T06:29:46.576Z,20.97
2018-09-20T06:32:14.653Z,21.05
2018-09-20T06:34:42.732Z,21.16
2018-09-20T06:37:10.782Z,21.26
2018-09-20T06:39:38.844Z,21.36
2018-09-20T06:42:06.896Z,21.44
2018-09-20T06:44:35.057Z,21.62
2018-09-20T06:47:03.170Z,21.80
2018-09-20T06:49:31.256Z,21.96
2018-09-20T06:51:59.333Z,22.13
2018-09-20T06:54:27.388Z,22.35
2018-09-20T06:56:55.444Z,22.61
2018-09-20T06:59:23.529Z,22.86
2018-09-20T07:01:51.601Z,23.13
2018-09-20T07:04:19.695Z,23.39
2018-09-20T07:06:48.013Z,23.64
2018-09-20T07:09:16.109Z,23.82
2018-09-20T07:11:44.183Z,23.99
2018-09-20T07:14:12.241Z,24.21
2018-09-20T07:16:40.324Z,24.37
2018-09-20T07:19:08.463Z,24.51
2018-09-20T07:21:36.477Z,24.66
2018-09-20T07:24:04.536Z,24.81
2018-09-20T07:26:32.609Z,24.93
2018-09-20T07:29:00.666Z,25.06
2018-09-20T07:31:28.736Z,25.23
2018-09-20T07:33:56.784Z,25.43
2018-09-20T07:36:24.840Z,25.60
2018-09-20T07:38:52.956Z,25.78
2018-09-20T07:41:21.004Z,25.87
2018-09-20T07:43:49.056Z,25.98
2018-09-20T07:46:17.128Z,26.07
2018-09-20T07:48:45.187Z,26.09
2018-09-20T07:51:13.244Z,26.13
2018-09-20T07:53:41.348Z,26.19
2018-09-20T07:56:09.344Z,26.32
2018-09-20T07:58:37.392Z,26.43
2018-09-20T08:01:05.472Z,26.62
2018-09-20T08:03:33.529Z,26.85
2018-09-20T08:06:01.572Z,26.98
2018-09-20T08:08:29.640Z,27.13
2018-09-20T08:10:57.707Z,27.25
2018-09-20T08:13:25.783Z,27.28
2018-09-20T08:15:53.845Z,27.16
2018-09-20T08:18:21.912Z,27.00
2018-09-20T08:20:49.976Z,26.97
2018-09-20T08:23:18.036Z,26.95
2018-09-20T08:25:46.092Z,26.75
2018-09-20T08:28:14.151Z,26.60
2018-09-20T08:30:42.229Z,26.64
2018-09-20T08:33:10.376Z,26.67
2018-09-20T08:35:38.429Z,26.73
2018-09-20T08:38:06.510Z,26.71
2018-09-20T08:40:34.566Z,26.56
2018-09-20T08:43:02.647Z,26.49
2018-09-20T08:45:30.704Z,26.43
2018-09-20T08:47:58.760Z,26.38
2018-09-20T08:50:26.808Z,26.27
2018-09-20T08:52:54.881Z,26.21
2018-09-20T08:55:22.924Z,26.30
2018-09-20T08:57:55.392Z,26.46
2018-09-20T09:00:23.477Z,26.59
2018-09-20T09:02:51.555Z,26.64
2018-09-20T09:05:19.616Z,26.66
2018-09-20T09:07:47.688Z,26.72
2018-09-20T09:10:15.764Z,26.83
2018-09-20T09:12:43.845Z,26.92
2018-09-20T09:15:12.051Z,27.01
2018-09-20T09:17:40.130Z,26.95
2018-09-20T09:20:08.213Z,27.01
2018-09-20T09:22:36.275Z,27.15
2018-09-20T09:25:04.417Z,27.38
2018-09-20T09:27:32.480Z,27.60
2018-09-20T09:30:00.537Z,27.62
2018-09-20T09:32:28.649Z,27.45
2018-09-20T09:34:56.717Z,27.28
2018-09-20T09:37:24.781Z,27.18
2018-09-20T09:39:52.866Z,27.06
2018-09-20T09:42:20.924Z,27.01
2018-09-20T09:44:49.019Z,26.90
2018-09-20T09:47:17.084Z,26.77
2018-09-20T09:49:45.160Z,26.70
2018-09-20T09:52:13.225Z,26.57
2018-09-20T09:54:41.339Z,26.39
2018-09-20T09:57:09.384Z,26.35
2018-09-20T09:59:37.479Z,26.43
2018-09-20T10:02:05.540Z,26.48
2018-09-20T10:04:33.633Z,26.47
2018-09-20T10:07:01.996Z,26.45
2018-09-20T10:09:30.036Z,26.42
2018-09-20T10:11:58.201Z,26.50
2018-09-20T10:14:58.146Z,26.95
2018-09-20T10:17:26.223Z,27.25
2018-09-20T10:19:54.306Z,27.37
2018-09-20T10:22:22.379Z,27.46
2018-09-20T10:24:50.448Z,27.59
2018-09-20T10:27:18.513Z,27.78
2018-09-20T10:29:46.564Z,28.03
2018-09-20T10:32:14.622Z,27.98
2018-09-20T10:34:42.704Z,27.97
2018-09-20T10:37:10.825Z,27.99
2018-09-20T10:39:38.895Z,28.02
2018-09-20T10:42:06.972Z,28.17
2018-09-20T10:44:35.044Z,28.39
2018-09-20T10:47:03.121Z,28.57
2018-09-20T10:49:31.198Z,28.65
2018-09-20T10:51:59.245Z,28.50
2018-09-20T10:54:27.363Z,28.46
2018-09-20T10:56:55.380Z,28.42
2018-09-20T10:59:23.454Z,28.43
2018-09-20T11:01:51.524Z,28.40
2018-09-20T11:04:19.620Z,28.34
2018-09-20T11:06:47.684Z,28.43
2018-09-20T11:09:15.744Z,28.68
2018-09-20T11:11:43.801Z,28.75
2018-09-20T11:14:11.873Z,29.01
2018-09-20T11:16:40.164Z,29.15
2018-09-20T11:19:08.238Z,29.06
2018-09-20T11:21:36.319Z,28.88
2018-09-20T11:24:04.435Z,28.73
2018-09-20T11:26:32.517Z,28.63
2018-09-20T11:29:00.590Z,28.42
2018-09-20T11:31:28.694Z,28.28
2018-09-20T11:33:56.756Z,28.08
2018-09-20T11:36:24.830Z,27.78
2018-09-20T11:38:52.888Z,27.57
2018-09-20T11:41:20.942Z,27.38
2018-09-20T11:43:49.025Z,27.28
2018-09-20T11:46:17.107Z,27.32
2018-09-20T11:48:45.240Z,27.34
2018-09-20T11:51:13.336Z,27.52
2018-09-20T11:53:41.416Z,27.60
2018-09-20T11:56:09.500Z,27.69
2018-09-20T11:58:37.572Z,27.78
2018-09-20T12:01:05.647Z,28.16
2018-09-20T12:03:33.729Z,28.56
2018-09-20T12:06:01.868Z,28.78
2018-09-20T12:08:29.951Z,28.88
2018-09-20T12:10:58.022Z,28.74
2018-09-20T12:13:26.067Z,28.52
2018-09-20T12:15:54.273Z,28.34
2018-09-20T12:18:22.329Z,28.20
2018-09-20T12:20:50.376Z,28.18
2018-09-20T12:23:18.431Z,28.35
2018-09-20T12:25:46.482Z,28.51
2018-09-20T12:28:14.525Z,28.50
2018-09-20T12:30:42.584Z,28.46
2018-09-20T12:33:10.656Z,28.43
2018-09-20T12:35:38.845Z,28.48
2018-09-20T12:38:06.871Z,28.54
2018-09-20T12:40:34.901Z,28.61
2018-09-20T12:43:03.000Z,28.58
2018-09-20T12:45:31.020Z,28.47
2018-09-20T12:47:59.074Z,28.35
2018-09-20T12:50:27.148Z,28.15
2018-09-20T12:52:55.192Z,27.98
2018-09-20T12:55:23.259Z,27.91
2018-09-20T12:57:51.310Z,27.85
2018-09-20T13:00:20.034Z,27.75
2018-09-20T13:02:48.101Z,27.76
2018-09-20T13:05:16.184Z,27.90
2018-09-20T13:07:44.245Z,28.06
2018-09-20T13:10:12.316Z,28.31
2018-09-20T13:12:40.349Z,28.39
2018-09-20T13:15:08.529Z,28.43
2018-09-20T13:17:36.637Z,28.34
2018-09-20T13:20:04.774Z,28.31
2018-09-20T13:22:32.780Z,28.24
2018-09-20T13:25:00.852Z,28.33
2018-09-20T13:27:28.912Z,28.55
2018-09-20T13:29:57.096Z,28.73
2018-09-20T13:32:25.161Z,28.57
2018-09-20T13:34:53.228Z,28.60
2018-09-20T13:37:21.351Z,28.79
2018-09-20T13:39:49.371Z,28.90
2018-09-20T13:42:17.505Z,29.10
2018-09-20T13:44:45.600Z,29.23
2018-09-20T13:47:14.360Z,29.29
2018-09-20T13:49:42.435Z,29.34
2018-09-20T13:52:10.540Z,29.21
2018-09-20T13:54:38.612Z,29.19
2018-09-20T13:57:06.860Z,29.34
2018-09-20T13:59:34.933Z,29.36
2018-09-20T14:02:03.001Z,29.31
2018-09-20T14:04:31.059Z,29.15
2018-09-20T14:06:59.153Z,29.08
2018-09-20T14:09:27.239Z,29.15
2018-09-20T14:11:55.309Z,29.27
2018-09-20T14:14:23.401Z,29.45
2018-09-20T14:16:51.481Z,29.61
2018-09-20T14:19:19.580Z,29.69
2018-09-20T14:21:47.648Z,29.60
2018-09-20T14:24:15.721Z,29.46
2018-09-20T14:26:43.802Z,29.33
2018-09-20T14:29:11.863Z,29.23
2018-09-20T14:31:39.960Z,29.10
2018-09-20T14:34:08.069Z,29.12
2018-09-20T14:36:36.151Z,29.21
2018-09-20T14:39:06.737Z,29.37
2018-09-20T14:41:34.837Z,29.37
2018-09-20T14:44:02.900Z,29.22
2018-09-20T14:46:30.974Z,29.22
2018-09-20T14:48:59.040Z,29.12
2018-09-20T14:51:27.101Z,29.10
2018-09-20T14:53:55.181Z,29.17
2018-09-20T14:56:23.256Z,29.20
2018-09-20T14:58:51.329Z,29.27
2018-09-20T15:01:19.408Z,29.33
2018-09-20T15:03:47.472Z,29.32
2018-09-20T15:06:15.586Z,29.22
2018-09-20T15:08:43.660Z,29.19
2018-09-20T15:11:11.708Z,29.05
2018-09-20T15:13:39.785Z,28.92
2018-09-20T15:16:07.849Z,28.90
2018-09-20T15:18:35.961Z,28.83
2018-09-20T15:21:04.013Z,28.75
2018-09-20T15:23:32.080Z,28.64
2018-09-20T15:26:00.197Z,28.57
2018-09-20T15:28:28.409Z,28.40
2018-09-20T15:30:56.480Z,28.24
2018-09-20T15:33:24.606Z,28.15
2018-09-20T15:35:52.798Z,28.07
2018-09-20T15:38:20.910Z,27.97
2018-09-20T15:40:49.979Z,27.86
2018-09-20T15:43:18.084Z,27.77
2018-09-20T15:45:46.201Z,27.71
2018-09-20T15:48:14.317Z,27.62
2018-09-20T15:50:42.447Z,27.61
2018-09-20T15:53:10.571Z,27.62
2018-09-20T15:55:38.725Z,27.55
2018-09-20T15:58:06.952Z,27.47
2018-09-20T16:00:35.183Z,27.33
2018-09-20T16:03:03.312Z,27.25
2018-09-20T16:05:31.381Z,27.20
2018-09-20T16:07:59.473Z,27.15
2018-09-20T16:10:27.545Z,27.16
2018-09-20T16:12:55.612Z,27.17
2018-09-20T16:15:23.692Z,27.14
2018-09-20T16:17:51.761Z,27.11
2018-09-20T16:20:19.808Z,27.08
2018-09-20T16:22:47.893Z,27.07
2018-09-20T16:25:15.960Z,27.05
2018-09-20T16:27:44.037Z,27.01
2018-09-20T16:30:40.870Z,26.93
2018-09-20T16:34:22.466Z,26.89
2018-09-20T16:37:00.581Z,26.80
2018-09-20T16:39:30.933Z,26.72
2018-09-20T16:42:04.096Z,26.69
2018-09-20T16:44:32.203Z,26.67
2018-09-20T16:47:00.441Z,26.67
2018-09-20T16:49:28.908Z,26.62
2018-09-20T16:51:56.984Z,26.61
2018-09-20T16:54:25.053Z,26.59
2018-09-20T16:56:53.144Z,26.58
2018-09-20T16:59:21.211Z,26.57
2018-09-20T17:01:49.261Z,26.56
2018-09-20T17:04:17.332Z,26.52
2018-09-20T17:06:45.404Z,26.46
2018-09-20T17:09:13.577Z,26.39
2018-09-20T17:11:41.674Z,26.31
2018-09-20T17:14:09.757Z,26.21
2018-09-20T17:16:37.899Z,26.09
2018-09-20T17:19:06.028Z,25.96
2018-09-20T17:21:34.133Z,25.83
2018-09-20T17:24:02.212Z,25.66
2018-09-20T17:26:30.284Z,25.49
2018-09-20T17:28:58.340Z,25.32
2018-09-20T17:31:26.439Z,25.20
2018-09-20T17:33:54.511Z,25.17
2018-09-20T17:36:22.763Z,25.18
2018-09-20T17:38:51.456Z,25.19
2018-09-20T17:41:22.829Z,25.21
2018-09-20T17:43:53.636Z,25.24
2018-09-20T17:46:21.699Z,25.29
2018-09-20T17:48:49.744Z,25.38
2018-09-20T17:51:18.577Z,25.40
2018-09-20T17:53:46.972Z,25.41
2018-09-20T17:56:15.430Z,25.41
2018-09-20T17:58:44.310Z,25.43
2018-09-20T18:01:12.390Z,25.48
2018-09-20T18:03:40.460Z,25.51
2018-09-20T18:06:08.580Z,25.54
2018-09-20T18:08:36.623Z,25.54
2018-09-20T18:11:04.916Z,25.54
2018-09-20T18:13:32.972Z,25.56
2018-09-20T18:16:01.080Z,25.59
2018-09-20T18:18:29.128Z,25.61
2018-09-20T18:20:57.275Z,25.58
2018-09-20T18:23:25.368Z,25.29
2018-09-20T18:25:53.435Z,24.95
2018-09-20T18:28:21.551Z,24.63
2018-09-20T18:30:49.640Z,24.37
2018-09-20T18:33:17.782Z,24.11
2018-09-20T18:35:45.902Z,23.87
2018-09-20T18:38:13.979Z,23.64
2018-09-20T18:40:42.049Z,23.44
2018-09-20T18:43:10.149Z,23.26
2018-09-20T18:45:38.228Z,23.11
2018-09-20T18:48:06.315Z,22.98
2018-09-20T18:50:34.386Z,22.86
2018-09-20T18:53:02.453Z,22.73
2018-09-20T18:55:30.667Z,22.63
2018-09-20T18:57:58.700Z,22.50
2018-09-20T19:00:26.789Z,22.40
2018-09-20T19:02:54.868Z,22.32
2018-09-20T19:05:22.967Z,22.25
2018-09-20T19:07:51.036Z,22.16
2018-09-20T19:10:19.124Z,22.09
2018-09-20T19:12:47.198Z,22.03
2018-09-20T19:15:15.281Z,21.95
2018-09-20T19:17:43.437Z,21.93
2018-09-20T19:20:11.528Z,21.88
2018-09-20T19:22:39.618Z,21.83
2018-09-20T19:25:07.793Z,21.77
2018-09-20T19:27:35.909Z,21.69
2018-09-20T19:30:03.937Z,21.68
2018-09-20T19:32:32.017Z,21.62
2018-09-20T19:35:00.180Z,21.59
2018-09-20T19:37:28.265Z,21.55
2018-09-20T19:39:56.454Z,21.51
2018-09-20T19:42:26.161Z,21.48
2018-09-20T19:44:55.159Z,21.45
2018-09-20T19:47:23.316Z,21.39
2018-09-20T19:49:51.376Z,21.36
2018-09-20T19:52:19.475Z,21.34
2018-09-20T19:54:47.545Z,21.29
2018-09-20T19:57:15.760Z,21.27
2018-09-20T19:59:43.836Z,21.24
2018-09-20T20:02:12.941Z,21.21
2018-09-20T20:04:41.032Z,21.16
2018-09-20T20:07:09.112Z,21.11
2018-09-20T20:09:37.222Z,21.08
2018-09-20T20:12:05.499Z,21.04
2018-09-20T20:14:33.585Z,21.00
2018-09-20T20:17:01.688Z,20.97
2018-09-20T20:19:29.809Z,20.93
2018-09-20T20:21:57.836Z,20.88
2018-09-20T20:24:25.925Z,20.83
2018-09-20T20:26:53.992Z,20.79
2018-09-20T20:29:22.090Z,20.76
2018-09-20T20:31:50.164Z,20.71
2018-09-20T20:34:18.237Z,20.69
2018-09-20T20:36:46.304Z,20.64
2018-09-20T20:39:14.393Z,20.61
2018-09-20T20:41:42.470Z,20.59
2018-09-20T20:44:10.552Z,20.56
2018-09-20T20:46:38.624Z,20.52
2018-09-20T20:49:06.692Z,20.47
2018-09-20T20:51:34.765Z,20.46
2018-09-20T20:54:02.844Z,20.45
2018-09-20T20:56:30.907Z,20.44
2018-09-20T20:58:58.976Z,20.42
2018-09-20T21:01:27.045Z,20.42
2018-09-20T21:03:55.106Z,20.42
2018-09-20T21:06:23.178Z,20.42
2018-09-20T21:08:51.256Z,20.43
2018-09-20T21:11:19.297Z,20.41
2018-09-20T21:13:47.672Z,20.42
2018-09-20T21:16:15.732Z,20.42
2018-09-20T21:18:43.816Z,20.40
2018-09-20T21:21:11.940Z,20.41
2018-09-20T21:23:40.009Z,20.40
2018-09-20T21:26:08.139Z,20.41
2018-09-20T21:28:36.162Z,20.42
2018-09-20T21:31:04.269Z,20.43
2018-09-20T21:33:32.345Z,20.44
2018-09-20T21:36:00.420Z,20.44
2018-09-20T21:38:28.504Z,20.46
2018-09-20T21:40:56.577Z,20.47
2018-09-20T21:43:24.653Z,20.48
2018-09-20T21:45:52.724Z,20.50
2018-09-20T21:48:20.784Z,20.50
2018-09-20T21:50:48.864Z,20.50
2018-09-20T21:53:16.916Z,20.49
2018-09-20T21:55:44.973Z,20.46
2018-09-20T21:58:13.045Z,20.44
2018-09-20T22:00:41.117Z,20.40
2018-09-20T22:03:09.168Z,20.37
2018-09-20T22:05:37.260Z,20.32
2018-09-20T22:08:05.300Z,20.28
2018-09-20T22:10:33.377Z,20.22
2018-09-20T22:13:01.449Z,20.19
2018-09-20T22:15:30.270Z,20.17
2018-09-20T22:17:58.935Z,20.15
2018-09-20T22:20:28.440Z,20.14
2018-09-20T22:22:56.493Z,20.13
2018-09-20T22:25:24.589Z,20.07
2018-09-20T22:27:52.689Z,20.03
2018-09-20T22:30:21.045Z,20.00
2018-09-20T22:32:49.145Z,19.97
2018-09-20T22:35:17.232Z,19.93
2018-09-20T22:37:45.296Z,19.90
2018-09-20T22:40:13.382Z,19.86
2018-09-20T22:42:41.462Z,19.78
2018-09-20T22:45:09.527Z,19.73
2018-09-20T22:47:37.581Z,19.70
2018-09-20T22:50:05.708Z,19.66
2018-09-20T22:52:33.764Z,19.64
2018-09-20T22:55:01.845Z,19.62
2018-09-20T22:57:29.966Z,19.60
2018-09-20T22:59:58.015Z,19.55
2018-09-20T23:02:26.097Z,19.48
2018-09-20T23:04:54.196Z,19.41
2018-09-20T23:07:22.245Z,19.37
2018-09-20T23:09:50.312Z,19.33
2018-09-20T23:12:18.360Z,19.28
2018-09-20T23:14:46.444Z,19.23
2018-09-20T23:17:14.491Z,19.19
2018-09-20T23:19:42.544Z,19.15
2018-09-20T23:22:10.596Z,19.13
2018-09-20T23:24:38.648Z,19.12
2018-09-20T23:27:06.720Z,19.13
2018-09-20T23:29:34.772Z,19.13
2018-09-20T23:32:02.828Z,19.13
2018-09-20T23:34:30.864Z,19.14
2018-09-20T23:36:58.940Z,19.14
2018-09-20T23:39:26.981Z,19.14
2018-09-20T23:41:55.047Z,19.17
2018-09-20T23:44:23.087Z,19.18
2018-09-20T23:46:51.140Z,19.21
2018-09-20T23:49:19.204Z,19.22
2018-09-20T23:51:47.261Z,19.22
2018-09-20T23:54:15.305Z,19.25
2018-09-20T23:56:43.354Z,19.25
2018-09-20T23:59:11.400Z,19.25
